Time;durP1;ratioP1;P1;durP2;ratioP2;P2;SDS_P1;SDS_P2;PMS_P1;PMS_P2;Temp;Humidity;BMP_temperature;BMP_pressure;BME280_temperature;BME280_humidity;BME280_pressure;Samples;Min_cycle;Max_cycle;Signal;HPM_P1;HPM_P2
2021/07/07 00:02:13;;;;;;;6.27;2.60;;;14.10;99.90;;;;;;5000464;28;20070;-63
2021/07/07 00:04:38;;;;;;;11.90;2.47;;;14.00;99.90;;;;;;4989410;28;20107;-64
2021/07/07 00:07:04;;;;;;;5.18;2.00;;;14.10;99.90;;;;;;4998015;28;20046;-63
2021/07/07 00:09:30;;;;;;;4.85;2.10;;;14.00;99.90;;;;;;4995759;28;20046;-63
2021/07/07 00:11:56;;;;;;;5.10;3.13;;;14.00;99.90;;;;;;5002102;28;20491;-63
2021/07/07 00:14:23;;;;;;;10.75;2.67;;;13.80;99.90;;;;;;4988922;28;20126;-63
2021/07/07 00:16:48;;;;;;;5.60;2.17;;;13.80;99.90;;;;;;4995383;28;20057;-63
2021/07/07 00:19:15;;;;;;;9.10;2.28;;;13.80;99.90;;;;;;4991278;28;20047;-63
2021/07/07 00:21:41;;;;;;;11.02;3.15;;;13.80;99.90;;;;;;4992525;28;20523;-63
2021/07/07 00:24:07;;;;;;;10.00;2.70;;;13.90;99.90;;;;;;4994732;28;20046;-63
2021/07/07 00:26:32;;;;;;;13.82;3.88;;;13.90;99.90;;;;;;4988908;28;20086;-64
2021/07/07 00:28:58;;;;;;;11.95;2.72;;;13.80;99.90;;;;;;4990333;28;20043;-64
2021/07/07 00:31:24;;;;;;;7.97;2.53;;;13.80;99.90;;;;;;4995227;28;20042;-63
2021/07/07 00:33:50;;;;;;;11.45;3.28;;;13.80;99.90;;;;;;4992489;28;20049;-64
2021/07/07 00:36:15;;;;;;;6.10;2.13;;;13.70;99.90;;;;;;5001684;28;20051;-62
2021/07/07 00:38:41;;;;;;;7.03;2.75;;;13.70;99.90;;;;;;5002662;28;20034;-63
2021/07/07 00:41:07;;;;;;;6.65;2.60;;;13.70;99.90;;;;;;4996676;28;20054;-62
2021/07/07 00:43:33;;;;;;;6.63;2.70;;;13.60;99.90;;;;;;5002995;28;20414;-63
2021/07/07 00:46:02;;;;;;;7.40;2.67;;;13.50;99.90;;;;;;4998843;28;20450;-63
2021/07/07 00:48:29;;;;;;;6.88;2.53;;;13.60;99.90;;;;;;4992841;28;20110;-63
2021/07/07 00:50:55;;;;;;;10.05;2.50;;;13.50;99.90;;;;;;4998632;28;20042;-63
2021/07/07 00:53:21;;;;;;;10.55;2.30;;;13.50;99.90;;;;;;4989826;28;20155;-64
2021/07/07 00:55:47;;;;;;;8.93;2.65;;;13.50;99.90;;;;;;5000451;28;20046;-64
2021/07/07 00:58:13;;;;;;;13.00;2.60;;;13.50;99.90;;;;;;4995567;28;20073;-63
2021/07/07 01:00:39;;;;;;;9.15;2.15;;;13.50;99.90;;;;;;4993455;28;20360;-63
2021/07/07 01:03:06;;;;;;;7.47;2.13;;;13.50;99.90;;;;;;4990154;28;20103;-64
2021/07/07 01:05:33;;;;;;;11.07;2.70;;;13.40;99.90;;;;;;4996507;28;20054;-63
2021/07/07 01:07:59;;;;;;;9.82;2.88;;;13.40;99.90;;;;;;4990109;28;20446;-63
2021/07/07 01:10:25;;;;;;;6.28;2.30;;;13.50;99.90;;;;;;4996370;28;20061;-63
2021/07/07 01:12:53;;;;;;;9.10;2.85;;;13.40;99.90;;;;;;4991050;28;20059;-63
2021/07/07 01:15:20;;;;;;;5.00;2.53;;;13.30;99.90;;;;;;4994367;28;20046;-62
2021/07/07 01:17:47;;;;;;;9.50;2.80;;;13.40;99.90;;;;;;4992338;28;20042;-63
2021/07/07 01:20:16;;;;;;;8.75;2.78;;;13.30;99.90;;;;;;4992779;28;20043;-63
2021/07/07 01:22:42;;;;;;;9.02;2.90;;;13.30;99.90;;;;;;5002248;28;20038;-63
2021/07/07 01:25:10;;;;;;;9.15;3.97;;;13.30;99.90;;;;;;4993039;28;20058;-63
2021/07/07 01:27:37;;;;;;;;;;;13.20;99.90;;;;;;4996976;28;20402;-63
2021/07/07 01:30:05;;;;;;;6.60;2.60;;;13.20;99.90;;;;;;4990094;28;19941;-63
2021/07/07 01:32:31;;;;;;;14.55;3.22;;;13.20;99.90;;;;;;4994144;28;20053;-63
2021/07/07 01:34:57;;;;;;;15.82;3.00;;;13.20;99.90;;;;;;5004968;28;20490;-63
2021/07/07 01:37:26;;;;;;;7.10;2.65;;;13.00;99.90;;;;;;5005167;28;20100;-63
2021/07/07 01:39:52;;;;;;;9.55;3.40;;;13.00;99.90;;;;;;5004197;28;20052;-63
2021/07/07 01:42:18;;;;;;;4.47;2.42;;;13.00;99.90;;;;;;4989306;28;20090;-63
2021/07/07 01:44:46;;;;;;;8.02;3.20;;;12.90;99.90;;;;;;5004264;28;20046;-63
2021/07/07 01:47:11;;;;;;;7.60;3.72;;;12.80;99.90;;;;;;4988004;28;20046;-63
2021/07/07 01:49:37;;;;;;;11.13;3.58;;;12.80;99.90;;;;;;4994421;28;20050;-63
2021/07/07 01:52:03;;;;;;;7.57;3.08;;;12.70;99.90;;;;;;5002037;28;20126;-63
2021/07/07 01:54:29;;;;;;;8.13;3.70;;;12.80;99.90;;;;;;4998055;28;20042;-64
2021/07/07 01:56:55;;;;;;;10.15;2.97;;;12.80;99.90;;;;;;5002396;28;20050;-63
2021/07/07 01:59:21;;;;;;;7.15;3.35;;;12.80;99.90;;;;;;4994574;28;20082;-63
2021/07/07 02:01:47;;;;;;;7.60;3.30;;;12.70;99.90;;;;;;4999506;28;20050;-64
2021/07/07 02:04:12;;;;;;;11.68;3.40;;;12.80;99.90;;;;;;5000280;28;20092;-63
2021/07/07 02:06:38;;;;;;;8.82;2.90;;;12.70;99.90;;;;;;4998657;28;20042;-63
2021/07/07 02:09:05;;;;;;;9.07;2.60;;;12.70;99.90;;;;;;4997444;28;20049;-63
2021/07/07 02:11:31;;;;;;;11.02;2.67;;;12.60;99.90;;;;;;4995603;28;20046;-63
2021/07/07 02:13:57;;;;;;;8.52;3.00;;;12.60;99.90;;;;;;5003776;28;20065;-64
2021/07/07 02:16:23;;;;;;;6.30;3.40;;;12.60;99.90;;;;;;4988297;28;20053;-64
2021/07/07 02:18:49;;;;;;;8.82;3.60;;;12.70;99.90;;;;;;4997446;28;20065;-64
2021/07/07 02:21:15;;;;;;;13.48;3.28;;;12.70;99.90;;;;;;4990331;28;20046;-64
2021/07/07 02:23:41;;;;;;;8.88;3.53;;;12.70;99.90;;;;;;4992638;28;20049;-65
2021/07/07 02:26:07;;;;;;;12.82;3.20;;;12.70;99.90;;;;;;4998548;28;20057;-64
2021/07/07 02:28:32;;;;;;;11.63;3.42;;;12.70;99.90;;;;;;4987553;28;20126;-63
2021/07/07 02:30:58;;;;;;;8.45;2.92;;;12.70;99.90;;;;;;4988890;28;20046;-64
2021/07/07 02:33:26;;;;;;;7.45;3.17;;;12.70;99.90;;;;;;4990379;28;20046;-63
2021/07/07 02:35:52;;;;;;;7.72;3.25;;;12.70;99.90;;;;;;4996972;28;20072;-63
2021/07/07 02:38:20;;;;;;;15.57;3.20;;;12.60;99.90;;;;;;5002705;28;20061;-65
2021/07/07 02:40:47;;;;;;;7.57;3.40;;;12.80;99.90;;;;;;5004261;28;20046;-63
2021/07/07 02:43:13;;;;;;;10.07;3.03;;;12.80;99.90;;;;;;4992661;28;20057;-64
2021/07/07 02:45:40;;;;;;;13.90;3.35;;;12.80;99.90;;;;;;5002045;28;20511;-64
2021/07/07 02:48:07;;;;;;;9.55;2.85;;;12.70;99.90;;;;;;4997232;28;20046;-64
2021/07/07 02:50:34;;;;;;;11.50;3.00;;;12.70;99.90;;;;;;5001530;28;20073;-64
2021/07/07 02:53:00;;;;;;;9.20;3.42;;;12.80;99.90;;;;;;5006341;28;20505;-64
2021/07/07 02:55:26;;;;;;;9.55;3.20;;;12.70;99.90;;;;;;5007867;28;20053;-64
2021/07/07 02:57:58;;;;;;;13.07;3.67;;;12.70;99.90;;;;;;5007225;28;20046;-63
2021/07/07 03:00:40;;;;;;;6.25;3.33;;;12.70;99.90;;;;;;5007132;28;20060;-63
2021/07/07 03:03:11;;;;;;;7.20;3.13;;;12.70;99.90;;;;;;5008081;28;20049;-63
2021/07/07 03:05:40;;;;;;;5.85;3.47;;;12.80;99.90;;;;;;5006768;28;20131;-63
2021/07/07 03:08:06;;;;;;;5.55;2.95;;;12.70;99.90;;;;;;5000792;28;20068;-64
2021/07/07 03:10:32;;;;;;;11.32;3.20;;;12.70;99.90;;;;;;5007653;28;20046;-64
2021/07/07 03:12:59;;;;;;;7.28;3.40;;;12.80;99.90;;;;;;5006963;28;20065;-64
2021/07/07 03:15:25;;;;;;;8.75;3.17;;;12.80;99.90;;;;;;5007383;28;20050;-64
2021/07/07 03:17:53;;;;;;;11.07;3.42;;;12.60;99.90;;;;;;5000330;28;20042;-63
2021/07/07 03:20:19;;;;;;;4.20;2.63;;;12.80;99.90;;;;;;5007382;28;20077;-63
2021/07/07 03:22:45;;;;;;;8.43;3.65;;;12.80;99.90;;;;;;5004445;28;20038;-64
2021/07/07 03:25:11;;;;;;;21.77;4.03;;;12.80;99.90;;;;;;5006608;28;20042;-63
2021/07/07 03:27:37;;;;;;;11.50;3.17;;;12.80;99.90;;;;;;5003578;28;20153;-63
2021/07/07 03:30:04;;;;;;;9.43;3.30;;;12.90;99.90;;;;;;5006495;28;20049;-64
2021/07/07 03:32:30;;;;;;;9.48;3.40;;;12.80;99.90;;;;;;5007236;28;20050;-63
2021/07/07 03:34:56;;;;;;;12.25;3.25;;;12.90;99.90;;;;;;5007240;28;20084;-63
2021/07/07 03:37:22;;;;;;;7.20;2.70;;;13.00;99.90;;;;;;4998992;28;20057;-64
2021/07/07 03:39:48;;;;;;;6.97;2.97;;;13.00;99.90;;;;;;5006948;28;20197;-63
2021/07/07 03:42:15;;;;;;;7.28;3.33;;;13.00;99.90;;;;;;5006737;28;20057;-64
2021/07/07 03:44:42;;;;;;;7.65;2.90;;;13.00;99.90;;;;;;5006449;28;20050;-64
2021/07/07 03:47:08;;;;;;;7.15;3.25;;;12.90;99.90;;;;;;5005820;28;20098;-64
2021/07/07 03:49:34;;;;;;;8.90;3.20;;;13.00;99.90;;;;;;4998232;28;20038;-63
2021/07/07 03:52:00;;;;;;;38.72;3.50;;;12.90;99.90;;;;;;5006862;28;20110;-64
2021/07/07 03:54:26;;;;;;;9.20;2.80;;;13.10;99.90;;;;;;5000786;28;20077;-63
2021/07/07 03:56:54;;;;;;;10.52;2.72;;;13.10;99.90;;;;;;5005606;28;20038;-63
2021/07/07 03:59:21;;;;;;;6.82;2.53;;;13.20;99.90;;;;;;5006586;28;20066;-63
2021/07/07 04:01:47;;;;;;;10.00;2.75;;;13.40;99.90;;;;;;5007184;28;20129;-63
2021/07/07 04:04:13;;;;;;;4.70;2.20;;;13.40;99.90;;;;;;5006089;28;20066;-63
2021/07/07 04:06:39;;;;;;;5.97;2.90;;;13.30;99.90;;;;;;5006071;28;20046;-63
2021/07/07 04:09:05;;;;;;;5.90;2.50;;;13.40;99.90;;;;;;5006072;28;20050;-63
2021/07/07 04:11:31;;;;;;;10.15;2.72;;;13.50;99.90;;;;;;5006309;28;20500;-63
2021/07/07 04:13:57;;;;;;;9.30;3.00;;;13.60;99.90;;;;;;5006639;28;20069;-63
2021/07/07 04:16:24;;;;;;;9.02;2.88;;;13.70;99.90;;;;;;4998856;28;20042;-63
2021/07/07 04:18:51;;;;;;;;;;;13.70;99.90;;;;;;5002293;28;20050;-63
2021/07/07 04:21:17;;;;;;;7.93;2.88;;;13.70;99.90;;;;;;5006294;28;19925;-63
2021/07/07 04:23:42;;;;;;;5.55;2.60;;;13.70;99.90;;;;;;5006737;28;20392;-63
2021/07/07 04:26:08;;;;;;;11.80;3.20;;;13.70;99.90;;;;;;4997535;28;20045;-63
2021/07/07 04:28:34;;;;;;;14.55;2.92;;;13.70;99.90;;;;;;4997554;28;20042;-63
2021/07/07 04:31:00;;;;;;;5.90;3.22;;;13.70;99.90;;;;;;5004234;28;20046;-64
2021/07/07 04:33:26;;;;;;;9.73;3.25;;;13.80;99.90;;;;;;4998558;28;20043;-64
2021/07/07 04:35:52;;;;;;;6.15;3.00;;;13.80;99.90;;;;;;4999596;28;20088;-63
2021/07/07 04:38:18;;;;;;;6.97;3.05;;;13.90;99.90;;;;;;5006257;28;20046;-64
2021/07/07 04:40:43;;;;;;;4.68;2.45;;;13.90;99.90;;;;;;5001252;28;20038;-64
2021/07/07 04:43:09;;;;;;;6.32;2.88;;;13.90;99.90;;;;;;5001788;28;20050;-64
2021/07/07 04:45:35;;;;;;;7.93;2.20;;;13.90;99.90;;;;;;5005638;28;20487;-64
2021/07/07 04:48:02;;;;;;;5.25;2.78;;;13.90;99.90;;;;;;5000272;28;20042;-63
2021/07/07 04:50:28;;;;;;;9.30;3.17;;;14.00;99.90;;;;;;5004266;28;20073;-63
2021/07/07 04:52:54;;;;;;;8.60;2.67;;;14.10;99.90;;;;;;5006143;28;20069;-63
2021/07/07 04:55:20;;;;;;;8.93;3.30;;;14.10;99.90;;;;;;5005879;28;20069;-63
2021/07/07 04:57:46;;;;;;;6.20;3.25;;;14.10;99.90;;;;;;4988300;28;20457;-63
2021/07/07 05:00:22;;;;;;;6.65;2.90;;;14.10;99.90;;;;;;5005266;28;20073;-63
2021/07/07 05:02:49;;;;;;;9.45;3.45;;;14.20;99.90;;;;;;5005623;28;20046;-63
2021/07/07 05:05:17;;;;;;;6.25;2.40;;;14.30;99.90;;;;;;5000746;28;20081;-64
2021/07/07 05:07:45;;;;;;;4.28;2.22;;;14.30;99.90;;;;;;5003314;28;20042;-64
2021/07/07 05:10:11;;;;;;;6.97;2.63;;;14.40;99.90;;;;;;4998716;28;20050;-63
2021/07/07 05:12:38;;;;;;;3.28;2.28;;;14.40;99.90;;;;;;4995997;28;20085;-63
2021/07/07 05:15:05;;;;;;;6.07;2.38;;;14.50;99.90;;;;;;4987198;28;20055;-63
2021/07/07 05:17:31;;;;;;;;;;;14.50;99.90;;;;;;4995741;28;20096;-63
2021/07/07 05:19:58;;;;;;;6.63;2.67;;;14.60;99.90;;;;;;4988313;28;19922;-63
2021/07/07 05:22:24;;;;;;;6.18;2.40;;;14.80;99.90;;;;;;4997384;28;20054;-64
2021/07/07 05:24:51;;;;;;;5.45;2.45;;;14.80;99.90;;;;;;4997186;28;20084;-64
2021/07/07 05:27:17;;;;;;;10.88;2.97;;;14.90;99.90;;;;;;4989277;28;20039;-63
2021/07/07 05:29:43;;;;;;;5.57;2.10;;;15.00;99.90;;;;;;4991622;28;20042;-63
2021/07/07 05:32:09;;;;;;;6.60;2.50;;;15.10;99.90;;;;;;4992421;28;20053;-63
2021/07/07 05:34:37;;;;;;;3.70;1.67;;;15.30;99.90;;;;;;4993194;28;20565;-63
2021/07/07 05:37:03;;;;;;;6.85;2.15;;;15.40;99.90;;;;;;4985852;28;20514;-63
2021/07/07 05:39:29;;;;;;;7.07;2.30;;;15.60;99.90;;;;;;4995951;28;20100;-63
2021/07/07 05:41:55;;;;;;;4.55;1.98;;;15.70;99.90;;;;;;4993533;28;20046;-64
2021/07/07 05:44:21;;;;;;;5.13;2.40;;;15.80;99.90;;;;;;4990278;28;20092;-63
2021/07/07 05:46:47;;;;;;;5.00;2.40;;;16.00;99.90;;;;;;4991108;28;20054;-63
2021/07/07 05:49:13;;;;;;;4.15;2.13;;;16.20;99.90;;;;;;4998384;28;20046;-63
2021/07/07 05:51:38;;;;;;;6.82;2.28;;;16.30;99.90;;;;;;5000372;28;20046;-63
2021/07/07 05:54:04;;;;;;;5.68;2.13;;;16.40;99.90;;;;;;4996560;28;20055;-63
2021/07/07 05:56:30;;;;;;;9.38;2.13;;;16.50;99.90;;;;;;4993899;28;20043;-63
2021/07/07 05:58:56;;;;;;;5.63;1.90;;;16.60;99.90;;;;;;4994343;28;20146;-63
2021/07/07 06:01:22;;;;;;;6.70;2.22;;;16.70;99.90;;;;;;4994303;28;20098;-63
2021/07/07 06:03:47;;;;;;;4.38;2.00;;;16.60;99.90;;;;;;4995275;28;20046;-63
2021/07/07 06:06:13;;;;;;;6.13;2.20;;;16.60;99.90;;;;;;4994243;28;20039;-63
2021/07/07 06:08:39;;;;;;;8.63;1.85;;;16.70;99.90;;;;;;4989146;28;20074;-63
2021/07/07 06:11:04;;;;;;;11.38;2.00;;;16.70;99.90;;;;;;4995490;28;20078;-63
2021/07/07 06:13:30;;;;;;;6.40;1.60;;;16.80;99.90;;;;;;4989707;28;20171;-63
2021/07/07 06:15:56;;;;;;;4.75;1.73;;;16.70;99.90;;;;;;4995682;28;20038;-63
2021/07/07 06:18:22;;;;;;;6.28;2.13;;;16.70;99.90;;;;;;4992402;28;20042;-64
2021/07/07 06:20:48;;;;;;;9.18;2.30;;;16.80;99.90;;;;;;4988596;28;20074;-63
2021/07/07 06:23:14;;;;;;;6.03;2.10;;;17.00;99.90;;;;;;4990474;28;20054;-64
2021/07/07 06:25:40;;;;;;;7.22;2.00;;;17.10;99.90;;;;;;4996217;28;20117;-63
2021/07/07 06:28:06;;;;;;;9.63;1.98;;;17.30;99.90;;;;;;4989482;28;20046;-62
2021/07/07 06:30:32;;;;;;;5.78;2.00;;;17.50;99.90;;;;;;4995015;28;20050;-63
2021/07/07 06:33:01;;;;;;;6.53;1.90;;;17.60;99.90;;;;;;4993855;28;20042;-62
2021/07/07 06:35:30;;;;;;;5.60;2.00;;;17.80;99.90;;;;;;4995353;28;20500;-62
2021/07/07 06:37:56;;;;;;;7.18;1.65;;;17.90;99.90;;;;;;4989432;28;20065;-62
2021/07/07 06:40:23;;;;;;;6.72;1.83;;;18.10;99.90;;;;;;5000046;28;20522;-62
2021/07/07 06:42:49;;;;;;;6.40;1.95;;;17.70;99.90;;;;;;5004542;28;20120;-62
2021/07/07 06:45:17;;;;;;;7.70;2.28;;;18.20;99.90;;;;;;4988843;28;20586;-63
2021/07/07 06:47:43;;;;;;;5.90;1.40;;;18.30;99.90;;;;;;4997720;28;20046;-63
2021/07/07 06:50:11;;;;;;;4.30;1.33;;;18.30;99.90;;;;;;4996927;28;20038;-63
2021/07/07 06:52:37;;;;;;;3.58;1.70;;;18.30;99.90;;;;;;4995333;28;20038;-63
2021/07/07 06:55:05;;;;;;;6.03;1.80;;;18.50;99.90;;;;;;4990548;28;20053;-63
2021/07/07 06:57:34;;;;;;;;;;;18.80;99.90;;;;;;4999156;28;20117;-63
2021/07/07 07:00:18;;;;;;;;;;;18.80;99.90;;;;;;4991610;28;19937;-64
2021/07/07 07:02:45;;;;;;;8.70;1.90;;;18.80;99.90;;;;;;4990998;28;19932;-65
2021/07/07 07:05:15;;;;;;;11.48;1.90;;;18.90;99.90;;;;;;4997595;28;20124;-64
2021/07/07 07:07:42;;;;;;;3.13;1.30;;;19.10;99.90;;;;;;4992128;28;20098;-65
2021/07/07 07:10:10;;;;;;;8.48;2.40;;;19.10;99.90;;;;;;5000110;28;20057;-64
2021/07/07 07:12:36;;;;;;;5.43;1.90;;;18.90;99.90;;;;;;4995627;28;20050;-64
2021/07/07 07:15:05;;;;;;;3.95;1.80;;;19.00;99.90;;;;;;4998440;28;20046;-63
2021/07/07 07:17:33;;;;;;;6.18;1.77;;;19.30;99.90;;;;;;4990108;28;20038;-64
2021/07/07 07:20:02;;;;;;;4.25;1.73;;;19.50;99.90;;;;;;4996420;28;20092;-64
2021/07/07 07:22:28;;;;;;;8.90;1.85;;;19.50;99.90;;;;;;4993099;28;20126;-64
2021/07/07 07:24:54;;;;;;;4.25;1.40;;;19.50;99.90;;;;;;4998183;28;20137;-64
2021/07/07 07:27:21;;;;;;;5.18;1.50;;;19.50;99.90;;;;;;4988213;28;20462;-64
2021/07/07 07:29:46;;;;;;;6.25;2.20;;;19.50;99.90;;;;;;4994236;28;20042;-64
2021/07/07 07:32:13;;;;;;;3.92;1.63;;;19.50;99.90;;;;;;5002679;28;20057;-64
2021/07/07 07:34:38;;;;;;;5.97;1.60;;;19.60;99.90;;;;;;4999598;28;20097;-63
2021/07/07 07:37:05;;;;;;;6.20;1.75;;;19.50;99.90;;;;;;4994458;28;20054;-64
2021/07/07 07:39:46;;;;;;;5.77;1.80;;;19.40;99.90;;;;;;4995788;28;20070;-64
2021/07/07 07:42:14;;;;;;;7.78;2.45;;;19.50;99.90;;;;;;4992622;28;20324;-64
2021/07/07 07:44:40;;;;;;;6.25;2.03;;;19.60;99.90;;;;;;4993123;28;20080;-64
2021/07/07 07:47:06;;;;;;;6.10;1.90;;;19.40;99.90;;;;;;4990069;28;20137;-64
2021/07/07 07:49:32;;;;;;;5.18;2.00;;;19.40;99.90;;;;;;4992517;28;20069;-64
2021/07/07 07:51:58;;;;;;;3.75;2.00;;;19.30;99.90;;;;;;4987700;28;20058;-63
2021/07/07 07:54:25;;;;;;;3.85;1.75;;;19.30;99.90;;;;;;4992704;28;20061;-64
2021/07/07 07:56:51;;;;;;;6.97;2.55;;;19.40;99.90;;;;;;4988915;28;20058;-64
2021/07/07 07:59:17;;;;;;;7.70;2.00;;;19.40;99.90;;;;;;4988595;28;20394;-64
2021/07/07 08:01:42;;;;;;;7.80;1.67;;;19.30;99.90;;;;;;4997303;28;20093;-64
2021/07/07 08:04:08;;;;;;;8.15;1.90;;;19.20;99.90;;;;;;4990898;28;20102;-64
2021/07/07 08:06:34;;;;;;;5.28;1.92;;;19.20;99.90;;;;;;4996538;28;20046;-63
2021/07/07 08:09:02;;;;;;;5.60;2.00;;;19.10;99.90;;;;;;4993596;28;20106;-63
2021/07/07 08:11:27;;;;;;;4.00;1.90;;;19.20;99.90;;;;;;4989836;28;20053;-64
2021/07/07 08:13:53;;;;;;;7.10;1.98;;;19.30;99.90;;;;;;4988155;28;20153;-64
2021/07/07 08:16:22;;;;;;;7.43;2.55;;;19.50;99.90;;;;;;4992725;28;20056;-64
2021/07/07 08:18:49;;;;;;;4.57;2.10;;;19.60;99.90;;;;;;4992872;28;20054;-64
2021/07/07 08:21:17;;;;;;;9.20;2.38;;;19.90;99.90;;;;;;4990780;28;20046;-64
2021/07/07 08:23:55;;;;;;;9.48;2.80;;;20.10;99.90;;;;;;4993310;28;20097;-64
2021/07/07 08:26:20;;;;;;;5.43;1.90;;;20.30;99.90;;;;;;4997541;28;20054;-64
2021/07/07 08:28:46;;;;;;;7.18;2.22;;;20.40;99.90;;;;;;4993708;28;20052;-64
2021/07/07 08:31:21;;;;;;;5.63;1.70;;;20.50;99.90;;;;;;4993697;28;20051;-63
2021/07/07 08:33:46;;;;;;;5.18;1.60;;;20.40;99.90;;;;;;4995883;28;20841;-64
2021/07/07 08:36:18;;;;;;;5.85;1.95;;;20.30;99.90;;;;;;4991977;28;20051;-65
2021/07/07 08:38:44;;;;;;;4.80;2.13;;;20.50;99.90;;;;;;4990589;28;20058;-69
2021/07/07 08:41:10;;;;;;;8.60;1.90;;;20.50;99.90;;;;;;4989265;28;20073;-63
2021/07/07 08:43:36;;;;;;;5.85;1.95;;;20.60;99.90;;;;;;5002000;28;20070;-72
2021/07/07 08:46:02;;;;;;;4.47;1.48;;;20.70;99.90;;;;;;4999653;28;20046;-74
2021/07/07 08:48:28;;;;;;;9.57;1.92;;;20.50;99.90;;;;;;4992210;28;20046;-69
2021/07/07 08:50:59;;;;;;;5.05;1.63;;;20.50;99.90;;;;;;4990561;28;20053;-68
2021/07/07 08:53:26;;;;;;;8.02;1.80;;;20.70;99.90;;;;;;4992552;28;20046;-70
2021/07/07 08:55:54;;;;;;;6.43;1.80;;;21.10;99.90;;;;;;4999038;28;20074;-69
2021/07/07 08:58:20;;;;;;;;;;;20.90;99.90;;;;;;4991966;28;20047;-68
2021/07/07 09:00:46;;;;;;;3.88;1.30;;;21.00;99.90;;;;;;4995339;28;19953;-68
2021/07/07 09:03:14;;;;;;;7.65;1.50;;;21.00;99.90;;;;;;4995395;28;20042;-69
2021/07/07 09:06:11;;;;;;;9.68;2.05;;;21.00;99.90;;;;;;4998580;28;20053;-69
2021/07/07 09:08:48;;;;;;;5.22;1.60;;;20.90;99.90;;;;;;4990570;28;20062;-68
2021/07/07 09:11:34;;;;;;;6.78;1.70;;;20.80;99.90;;;;;;5006283;28;20073;-68
2021/07/07 09:14:12;;;;;;;4.40;1.17;;;21.00;99.90;;;;;;4990071;28;20062;-68
2021/07/07 09:16:45;;;;;;;6.15;1.60;;;21.10;99.90;;;;;;4992709;28;20050;-69
2021/07/07 09:19:19;;;;;;;6.10;1.50;;;21.10;99.90;;;;;;4989118;28;20054;-68
2021/07/07 09:21:59;;;;;;;6.70;1.48;;;21.20;99.90;;;;;;4990938;28;20074;-68
2021/07/07 09:24:48;;;;;;;5.35;1.27;;;21.40;99.90;;;;;;4995707;28;20168;-66
2021/07/07 09:27:38;;;;;;;7.03;1.80;;;21.40;99.90;;;;;;4990625;28;20054;-68
2021/07/07 09:30:24;;;;;;;3.72;1.27;;;21.20;99.90;;;;;;4982588;28;20133;-69
2021/07/07 09:33:11;;;;;;;7.07;1.60;;;21.00;99.90;;;;;;4989252;28;20134;-67
2021/07/07 09:35:41;;;;;;;2.90;1.45;;;20.80;99.90;;;;;;4990003;28;20137;-70
2021/07/07 09:38:08;;;;;;;6.63;1.23;;;20.70;99.90;;;;;;4999553;28;20097;-67
2021/07/07 09:40:40;;;;;;;3.78;1.23;;;21.00;99.90;;;;;;4991453;28;20134;-67
2021/07/07 09:43:26;;;;;;;6.82;1.63;;;21.20;99.90;;;;;;4983331;28;20130;-67
2021/07/07 09:45:51;;;;;;;5.82;1.15;;;21.40;99.90;;;;;;4996344;28;20495;-68
2021/07/07 09:48:18;;;;;;;8.35;2.20;;;21.70;99.90;;;;;;4989870;28;20430;-65
2021/07/07 09:50:45;;;;;;;6.95;1.65;;;21.60;99.90;;;;;;4992356;28;20130;-67
2021/07/07 09:53:26;;;;;;;9.00;1.88;;;21.60;99.90;;;;;;4989661;28;20121;-64
2021/07/07 09:55:52;;;;;;;5.97;1.52;;;21.90;99.90;;;;;;4986525;28;20114;-64
2021/07/07 09:58:19;;;;;;;6.15;1.88;;;21.90;99.90;;;;;;4989048;28;20090;-64
2021/07/07 10:00:45;;;;;;;6.63;1.88;;;22.00;99.90;;;;;;4984988;28;20052;-65
2021/07/07 10:03:35;;;;;;;4.90;1.33;;;22.20;99.90;;;;;;4990684;28;20378;-64
2021/07/07 10:06:21;;;;;;;5.65;1.70;;;22.00;99.90;;;;;;4993827;28;20130;-61
2021/07/07 10:09:08;;;;;;;6.05;1.90;;;22.40;99.90;;;;;;4992012;28;20053;-61
2021/07/07 10:11:35;;;;;;;4.10;1.70;;;22.50;99.90;;;;;;4988829;28;20094;-61
2021/07/07 10:14:01;;;;;;;6.00;1.95;;;22.50;99.90;;;;;;4989895;28;20089;-61
2021/07/07 10:16:32;;;;;;;6.55;1.90;;;22.30;99.90;;;;;;4994444;28;20102;-61
2021/07/07 10:19:19;;;;;;;8.07;1.73;;;22.40;99.90;;;;;;5005102;28;20100;-62
2021/07/07 10:21:48;;;;;;;5.30;1.70;;;22.40;99.90;;;;;;4995069;28;20074;-66
2021/07/07 10:24:16;;;;;;;5.65;1.42;;;22.60;99.90;;;;;;4995683;28;20106;-64
2021/07/07 10:26:45;;;;;;;6.68;1.75;;;22.50;99.90;;;;;;4993622;28;20049;-65
2021/07/07 10:29:12;;;;;;;8.77;2.08;;;22.80;99.90;;;;;;4990388;28;20498;-65
2021/07/07 10:32:05;;;;;;;3.92;1.52;;;23.00;99.90;;;;;;4993432;28;20046;-65
2021/07/07 10:34:31;;;;;;;5.60;1.73;;;23.00;99.90;;;;;;4997897;28;20055;-65
2021/07/07 10:36:59;;;;;;;3.60;1.30;;;22.80;99.90;;;;;;5000306;28;20047;-65
2021/07/07 10:39:26;;;;;;;4.72;1.80;;;22.80;99.90;;;;;;4989365;28;20125;-72
2021/07/07 10:41:53;;;;;;;12.00;2.35;;;22.80;99.90;;;;;;4993067;28;20682;-68
2021/07/07 10:44:25;;;;;;;8.68;1.95;;;22.60;99.90;;;;;;4991086;28;20410;-68
2021/07/07 10:47:05;;;;;;;9.93;2.33;;;22.70;99.90;;;;;;4992851;28;20051;-70
2021/07/07 10:49:38;;;;;;;5.80;1.60;;;22.90;99.90;;;;;;4989725;28;20047;-71
2021/07/07 10:52:05;;;;;;;7.22;2.05;;;;;;;;;;4989966;28;20038;-71
2021/07/07 10:54:33;;;;;;;4.60;2.22;;;23.30;99.20;;;;;;5001138;28;20038;-73
2021/07/07 10:57:00;;;;;;;9.38;1.70;;;23.30;99.90;;;;;;4995035;28;20053;-71
2021/07/07 10:59:39;;;;;;;8.50;2.10;;;23.00;99.90;;;;;;4986533;28;20074;-70
2021/07/07 11:02:07;;;;;;;6.22;1.65;;;23.20;99.90;;;;;;4987999;28;20039;-70
2021/07/07 11:04:36;;;;;;;9.90;1.77;;;23.20;99.90;;;;;;4986764;28;20564;-69
2021/07/07 11:07:35;;;;;;;7.72;1.90;;;23.40;99.90;;;;;;4988432;28;20066;-68
2021/07/07 11:10:12;;;;;;;7.20;2.72;;;23.40;99.10;;;;;;4988466;28;20050;-68
2021/07/07 11:12:39;;;;;;;7.38;1.70;;;23.40;98.60;;;;;;4988072;28;20050;-68
2021/07/07 11:15:16;;;;;;;5.32;1.50;;;23.60;99.50;;;;;;4991930;28;20047;-68
2021/07/07 11:17:45;;;;;;;7.43;1.75;;;23.60;98.70;;;;;;4989248;28;20046;-69
2021/07/07 11:20:13;;;;;;;5.95;1.65;;;23.70;96.90;;;;;;4995789;28;20050;-68
2021/07/07 11:22:41;;;;;;;3.15;1.30;;;23.80;97.80;;;;;;4994620;28;20053;-69
2021/07/07 11:25:26;;;;;;;5.28;1.45;;;24.20;96.80;;;;;;4994312;28;20038;-68
2021/07/07 11:27:53;;;;;;;9.10;1.73;;;24.40;98.10;;;;;;4991007;28;20046;-67
2021/07/07 11:30:21;;;;;;;10.73;1.98;;;24.20;97.50;;;;;;4995712;28;20499;-69
2021/07/07 11:32:49;;;;;;;6.85;1.90;;;24.10;96.80;;;;;;4988239;28;20465;-70
2021/07/07 11:35:25;;;;;;;5.85;1.27;;;24.00;99.10;;;;;;4992887;28;20111;-69
2021/07/07 11:37:58;;;;;;;5.13;1.42;;;23.90;98.70;;;;;;4990989;28;20066;-68
2021/07/07 11:40:25;;;;;;;7.65;1.83;;;23.90;97.40;;;;;;4993326;28;20051;-68
2021/07/07 11:43:09;;;;;;;7.85;2.33;;;24.10;98.10;;;;;;4989994;28;20361;-69
2021/07/07 11:45:58;;;;;;;8.57;1.52;;;24.30;96.60;;;;;;4995395;28;20046;-70
2021/07/07 11:48:30;;;;;;;16.15;2.10;;;24.70;97.90;;;;;;4997437;28;20046;-69
2021/07/07 11:51:06;;;;;;;4.60;1.65;;;25.20;95.90;;;;;;4991880;28;20050;-67
2021/07/07 11:53:39;;;;;;;6.60;1.75;;;25.40;94.40;;;;;;4992095;28;20054;-65
2021/07/07 11:56:07;;;;;;;6.57;1.88;;;25.60;94.40;;;;;;4991790;28;20053;-65
2021/07/07 11:58:45;;;;;;;5.28;1.83;;;25.60;93.50;;;;;;4992092;28;20046;-65
2021/07/07 12:01:23;;;;;;;5.50;1.83;;;26.10;93.40;;;;;;4987211;28;20050;-69
2021/07/07 12:03:58;;;;;;;8.02;1.70;;;25.90;92.50;;;;;;4988944;28;20525;-72
2021/07/07 12:06:33;;;;;;;4.57;1.50;;;26.30;93.20;;;;;;5010475;28;20042;-70
2021/07/07 12:09:02;;;;;;;12.52;2.28;;;26.00;92.20;;;;;;4996459;28;20048;-62
2021/07/07 12:11:29;;;;;;;5.95;1.58;;;26.30;93.50;;;;;;4994483;28;20054;-70
2021/07/07 12:13:56;;;;;;;8.57;2.17;;;26.70;93.10;;;;;;4992455;28;20069;-69
2021/07/07 12:16:33;;;;;;;5.35;1.75;;;26.80;90.90;;;;;;4999385;28;20034;-70
2021/07/07 12:19:06;;;;;;;6.78;1.75;;;26.80;92.00;;;;;;4998737;28;20047;-72
2021/07/07 12:21:50;;;;;;;6.72;1.80;;;27.10;93.40;;;;;;4997882;28;20054;-65
2021/07/07 12:24:24;;;;;;;7.20;2.08;;;27.10;90.30;;;;;;4990590;28;20047;-74
2021/07/07 12:26:54;;;;;;;6.40;1.95;;;26.80;93.50;;;;;;4992739;28;20131;-71
2021/07/07 12:29:41;;;;;;;8.55;1.50;;;26.40;93.10;;;;;;4994262;28;20046;-71
2021/07/07 12:32:11;;;;;;;5.38;2.10;;;25.80;93.00;;;;;;4997237;28;20053;-73
2021/07/07 12:34:43;;;;;;;7.60;1.95;;;25.50;93.90;;;;;;4988492;28;20039;-71
2021/07/07 12:37:11;;;;;;;5.72;2.08;;;25.20;94.60;;;;;;4992445;28;20043;-73
2021/07/07 12:39:42;;;;;;;5.13;2.00;;;25.20;95.60;;;;;;4990782;28;20061;-68
2021/07/07 12:42:17;;;;;;;8.55;1.95;;;24.70;96.30;;;;;;4996178;28;20047;-67
2021/07/07 12:44:43;;;;;;;7.32;2.38;;;24.40;97.30;;;;;;4990147;28;20034;-67
2021/07/07 12:47:09;;;;;;;7.40;2.20;;;23.70;99.90;;;;;;4991075;28;20134;-66
2021/07/07 12:49:55;;;;;;;4.68;2.35;;;23.30;99.90;;;;;;4993263;28;20046;-69
2021/07/07 12:52:34;;;;;;;8.75;3.45;;;22.80;99.90;;;;;;4991716;28;20422;-68
2021/07/07 12:55:06;;;;;;;5.80;2.88;;;22.70;99.90;;;;;;4991692;28;20038;-63
2021/07/07 12:57:54;;;;;;;5.68;2.80;;;22.50;99.90;;;;;;4996953;28;20050;-69